Terminal Aerodrome Forecast
Issued by NWS

Home | Current Version | Previous Version | Text Only | Print | Product List | Glossary Off
Versions: 1 2 3 4 5 6 7 8 9 10 11 12 13

000
FTUS43 KMPX 251738
TAFRWF
TAF
KRWF 251738Z 2518/2618 15014G22KT P6SM SCT100
     FM260000 15007KT P6SM BKN050
     FM261200 18007KT P6SM OVC050
     FM261500 26009KT P6SM SCT050=

USA.gov is the U.S. government's official web portal to all federal, state and local government web resources and services.